Time;durP1;ratioP1;P1;durP2;ratioP2;P2;SDS_P1;SDS_P2;PMS_P1;PMS_P2;Temp;Humidity;BMP_temperature;BMP_pressure;BME280_temperature;BME280_humidity;BME280_pressure;Samples;Min_cycle;Max_cycle;Signal;HPM_P1;HPM_P2
2023/12/07 00:00:18;;;;;;;139.48;64.93;;;;;;;1.11;100.00;100506.94;4993356;28;20027;-82
2023/12/07 00:02:45;;;;;;;140.60;65.60;;;;;;;1.12;100.00;100503.69;4997227;28;20035;-82
2023/12/07 00:05:23;;;;;;;145.10;65.22;;;;;;;1.13;100.00;100505.28;5004993;28;20041;-80
2023/12/07 00:07:55;;;;;;;145.07;67.45;;;;;;;1.11;100.00;100502.09;5005723;28;20022;-82
2023/12/07 00:10:20;;;;;;;137.15;63.67;;;;;;;1.08;100.00;100510.59;5005448;28;20054;-83
2023/12/07 00:12:45;;;;;;;133.55;63.70;;;;;;;1.11;100.00;100515.41;5000941;28;20042;-83
2023/12/07 00:15:18;;;;;;;138.32;62.35;;;;;;;1.08;100.00;100499.34;4998596;28;20026;-83
2023/12/07 00:17:44;;;;;;;133.57;61.10;;;;;;;1.05;100.00;100506.63;5007400;28;20093;-82
2023/12/07 00:20:10;;;;;;;133.80;64.07;;;;;;;1.04;100.00;100507.84;5002749;28;20558;-83
2023/12/07 00:22:43;;;;;;;130.90;59.58;;;;;;;1.05;100.00;100515.06;4996725;28;20072;-82
2023/12/07 00:25:08;;;;;;;133.18;62.88;;;;;;;1.02;100.00;100511.06;4995536;28;20042;-81
2023/12/07 00:27:36;;;;;;;147.30;62.53;;;;;;;1.03;100.00;100506.25;4995611;28;20381;-81
2023/12/07 00:30:06;;;;;;;126.10;60.80;;;;;;;1.01;100.00;100517.09;4994361;28;20054;-81
2023/12/07 00:32:35;;;;;;;131.30;61.08;;;;;;;0.99;100.00;100513.94;4995551;28;20030;-81
2023/12/07 00:35:00;;;;;;;129.20;59.53;;;;;;;0.97;100.00;100510.72;5010646;28;20037;-83
2023/12/07 00:37:27;;;;;;;136.07;61.00;;;;;;;0.98;100.00;100509.53;4996579;28;20026;-83
2023/12/07 00:40:10;;;;;;;127.55;56.80;;;;;;;0.96;100.00;100517.59;4996620;28;20046;-83
2023/12/07 00:42:37;;;;;;;130.45;57.28;;;;;;;0.93;100.00;100521.25;4996943;28;20049;-82
2023/12/07 00:45:03;;;;;;;132.73;59.38;;;;;;;0.91;100.00;100521.66;5011673;28;20045;-84
2023/12/07 00:47:30;;;;;;;129.80;58.85;;;;;;;0.91;100.00;100526.50;4996501;28;20207;-83
2023/12/07 00:49:55;;;;;;;127.85;58.30;;;;;;;0.86;100.00;100519.31;4996802;28;20037;-84
2023/12/07 00:52:23;;;;;;;134.77;60.10;;;;;;;0.86;100.00;100522.13;4996672;28;20543;-84
2023/12/07 00:54:50;;;;;;;131.50;59.97;;;;;;;0.88;100.00;100522.50;4997803;28;20030;-83
2023/12/07 00:57:16;;;;;;;120.25;57.47;;;;;;;0.87;100.00;100532.16;5017045;28;20076;-83
2023/12/07 00:59:43;;;;;;;130.07;60.78;;;;;;;0.81;100.00;100525.41;5020308;28;20114;-82
2023/12/07 01:02:11;;;;;;;126.05;57.25;;;;;;;0.86;100.00;100527.75;5020078;28;20123;-83
2023/12/07 01:04:37;;;;;;;138.73;60.33;;;;;;;0.89;100.00;100523.31;5020929;28;20077;-83
2023/12/07 01:07:04;;;;;;;117.93;55.78;;;;;;;0.86;100.00;100530.56;5018792;28;20041;-82
2023/12/07 01:09:33;;;;;;;126.28;56.80;;;;;;;0.92;100.00;100528.06;5017398;28;20153;-83
2023/12/07 01:12:00;;;;;;;136.85;59.50;;;;;;;0.93;100.00;100526.88;5016327;28;20108;-82
2023/12/07 01:14:26;;;;;;;118.97;57.03;;;;;;;0.90;100.00;100536.97;5016228;28;20040;-83
2023/12/07 01:16:53;;;;;;;127.80;54.90;;;;;;;0.89;100.00;100534.56;5015527;28;20037;-83
2023/12/07 01:19:19;;;;;;;129.00;56.95;;;;;;;0.89;100.00;100537.38;5015280;28;20037;-82
2023/12/07 01:21:45;;;;;;;127.97;57.72;;;;;;;0.86;100.00;100533.38;5014586;28;20127;-83
2023/12/07 01:24:19;;;;;;;127.32;56.10;;;;;;;0.91;100.00;100546.97;5014313;28;20030;-82
2023/12/07 01:26:46;;;;;;;127.43;59.47;;;;;;;0.93;100.00;100538.13;5014373;28;20348;-82
2023/12/07 01:29:14;;;;;;;123.80;56.42;;;;;;;0.93;100.00;100543.75;4996936;28;20061;-82
2023/12/07 01:31:40;;;;;;;129.48;58.30;;;;;;;0.92;100.00;100542.16;5014362;28;20117;-81
2023/12/07 01:34:08;;;;;;;117.53;54.13;;;;;;;0.93;100.00;100555.00;5013224;28;20438;-82
2023/12/07 01:36:34;;;;;;;122.57;56.17;;;;;;;0.94;100.00;100548.16;5012946;28;20364;-80
2023/12/07 01:39:00;;;;;;;120.70;55.30;;;;;;;0.94;100.00;100553.78;5015372;28;20376;-81
2023/12/07 01:41:33;;;;;;;120.93;58.70;;;;;;;0.96;100.00;100554.19;5015367;28;20034;-82
2023/12/07 01:44:00;;;;;;;134.02;59.33;;;;;;;0.99;100.00;100553.31;5015054;28;20030;-81
2023/12/07 01:46:27;;;;;;;130.02;55.72;;;;;;;1.02;100.00;100558.09;5013346;28;20025;-82
2023/12/07 01:49:08;;;;;;;128.05;56.95;;;;;;;1.01;100.00;100560.09;5014035;28;20352;-80
2023/12/07 01:51:37;;;;;;;128.35;57.35;;;;;;;0.95;100.00;100556.19;5014113;28;20029;-82
2023/12/07 01:54:18;;;;;;;133.27;56.45;;;;;;;0.97;100.00;100556.53;5012846;28;20048;-81
2023/12/07 01:56:46;;;;;;;126.40;56.08;;;;;;;0.98;100.00;100555.34;5013494;28;20471;-82
2023/12/07 01:59:13;;;;;;;124.63;57.55;;;;;;;1.01;100.00;100564.94;5013121;28;20041;-80
2023/12/07 02:01:53;;;;;;;126.78;54.90;;;;;;;0.97;100.00;100559.34;5011299;28;20446;-82
2023/12/07 02:04:19;;;;;;;128.52;54.42;;;;;;;1.02;100.00;100566.53;5012739;28;20108;-81
2023/12/07 02:06:50;;;;;;;115.20;54.05;;;;;;;0.93;100.00;100558.59;5009269;28;20551;-80
2023/12/07 02:09:17;;;;;;;131.82;57.10;;;;;;;0.95;100.00;100563.81;5012694;28;20037;-80
2023/12/07 02:11:47;;;;;;;127.07;57.38;;;;;;;0.90;100.00;100564.28;4954146;28;1663138;-81
2023/12/07 02:14:14;;;;;;;121.57;54.85;;;;;;;0.90;100.00;100562.28;5013342;28;20065;-80
2023/12/07 02:16:48;;;;;;;115.75;53.22;;;;;;;0.99;100.00;100573.00;5014775;28;20159;-81
2023/12/07 02:19:39;;;;;;;119.95;53.78;;;;;;;0.98;100.00;100577.03;5012748;28;20427;-79
2023/12/07 02:22:14;;;;;;;116.50;54.22;;;;;;;0.99;100.00;100567.38;5028072;28;20030;-80
2023/12/07 02:25:13;;;;;;;123.07;55.95;;;;;;;1.04;100.00;100575.34;5011178;28;20022;-80
2023/12/07 02:27:49;;;;;;;128.88;57.47;;;;;;;1.05;100.00;100574.16;5008363;28;20461;-81
2023/12/07 02:30:15;;;;;;;119.50;52.88;;;;;;;1.06;100.00;100569.31;5012740;28;20022;-81
2023/12/07 02:32:45;;;;;;;118.88;55.08;;;;;;;1.08;100.00;100572.50;5011557;28;20140;-81
2023/12/07 02:35:25;;;;;;;123.10;54.50;;;;;;;1.08;100.00;100578.13;5011716;28;20040;-80
2023/12/07 02:37:53;;;;;;;125.65;54.20;;;;;;;1.10;100.00;100584.13;5012788;28;20025;-82
2023/12/07 02:40:24;;;;;;;124.10;53.33;;;;;;;1.13;100.00;100583.28;5014085;28;20374;-81
2023/12/07 02:42:51;;;;;;;;;;;;;;;1.09;100.00;100585.34;5014071;28;20040;-82
2023/12/07 02:45:17;;;;;;;115.18;52.92;;;;;;;1.08;100.00;100576.09;5013921;28;19909;-81
2023/12/07 02:47:44;;;;;;;115.88;51.55;;;;;;;1.10;100.00;100576.50;5013625;28;20056;-80
2023/12/07 02:50:25;;;;;;;122.85;54.80;;;;;;;1.15;100.00;100586.47;5014279;28;20045;-81
2023/12/07 02:52:52;;;;;;;125.45;57.88;;;;;;;1.14;100.00;100591.31;5013935;28;20487;-80
2023/12/07 02:55:19;;;;;;;119.15;53.92;;;;;;;1.10;100.00;100586.94;4979932;28;20041;-81
2023/12/07 02:57:46;;;;;;;122.72;56.28;;;;;;;1.08;100.00;100590.19;5014018;28;20041;-81
2023/12/07 03:00:14;;;;;;;121.20;53.88;;;;;;;1.08;100.00;100586.56;5013789;28;20120;-81
2023/12/07 03:02:41;;;;;;;113.88;53.78;;;;;;;1.09;100.00;100586.16;5014019;28;20026;-80
2023/12/07 03:05:10;;;;;;;121.15;55.50;;;;;;;1.13;100.00;100592.53;5012577;28;20032;-80
2023/12/07 03:07:36;;;;;;;125.85;54.65;;;;;;;1.15;100.00;100592.91;5013425;28;20034;-80
2023/12/07 03:10:02;;;;;;;121.65;54.10;;;;;;;1.16;100.00;100602.16;5012186;28;20034;-81
2023/12/07 03:12:30;;;;;;;116.78;51.83;;;;;;;1.17;100.00;100601.72;5011936;28;20053;-83
2023/12/07 03:14:56;;;;;;;120.10;56.10;;;;;;;1.17;100.00;100601.72;5013962;28;20053;-81
2023/12/07 03:17:23;;;;;;;116.47;54.28;;;;;;;1.22;100.00;100598.44;5013456;28;20030;-80
2023/12/07 03:19:49;;;;;;;118.50;54.42;;;;;;;1.23;100.00;100597.22;5012036;28;20034;-81
2023/12/07 03:22:17;;;;;;;124.25;56.35;;;;;;;1.25;100.00;100606.06;5011950;28;20040;-80
2023/12/07 03:24:57;;;;;;;120.50;57.50;;;;;;;1.23;100.00;100611.28;5013861;28;20029;-81
2023/12/07 03:27:23;;;;;;;126.60;54.97;;;;;;;1.22;100.00;100606.88;5013382;28;20108;-82
2023/12/07 03:29:51;;;;;;;129.35;56.53;;;;;;;1.23;100.00;100611.28;5013179;28;20467;-82
2023/12/07 03:32:16;;;;;;;118.47;53.83;;;;;;;1.25;100.00;100617.31;5013203;28;20501;-80
2023/12/07 03:34:43;;;;;;;121.68;54.15;;;;;;;1.24;100.00;100614.91;5011981;28;20034;-80
2023/12/07 03:37:17;;;;;;;125.28;56.97;;;;;;;1.23;100.00;100611.28;5013304;28;20022;-80
2023/12/07 03:39:43;;;;;;;124.18;56.95;;;;;;;1.24;100.00;100621.34;5017358;28;20133;-80
2023/12/07 03:42:10;;;;;;;127.70;56.47;;;;;;;1.25;100.00;100627.75;5015307;28;20095;-81
2023/12/07 03:44:35;;;;;;;128.65;56.33;;;;;;;1.22;100.00;100622.97;5017007;28;20057;-82
2023/12/07 03:47:01;;;;;;;126.40;57.75;;;;;;;1.22;100.00;100623.75;5017124;28;20064;-81
2023/12/07 03:49:27;;;;;;;119.45;57.53;;;;;;;1.19;100.00;100626.63;5015689;28;20532;-82
2023/12/07 03:51:54;;;;;;;128.25;56.72;;;;;;;1.20;100.00;100633.88;5017352;28;20025;-81
2023/12/07 03:54:22;;;;;;;121.80;55.20;;;;;;;1.21;100.00;100635.44;5015363;28;20476;-81
2023/12/07 03:56:50;;;;;;;125.78;56.75;;;;;;;1.23;100.00;100639.44;5017084;28;20029;-81
2023/12/07 03:59:16;;;;;;;122.97;56.10;;;;;;;1.22;100.00;100637.03;5016812;28;20497;-81
2023/12/07 04:01:44;;;;;;;127.13;59.80;;;;;;;1.24;100.00;100643.06;5016903;28;20026;-81
2023/12/07 04:04:10;;;;;;;120.97;56.15;;;;;;;1.23;100.00;100647.88;5016957;28;20084;-81
2023/12/07 04:06:38;;;;;;;119.50;56.72;;;;;;;1.23;100.00;100650.69;5015623;28;20478;-81
2023/12/07 04:09:06;;;;;;;123.95;53.63;;;;;;;1.24;100.00;100646.66;5016985;28;20033;-81
2023/12/07 04:11:33;;;;;;;125.30;57.00;;;;;;;1.21;100.00;100647.50;5015264;28;20054;-83
2023/12/07 04:14:00;;;;;;;125.05;54.28;;;;;;;1.21;100.00;100652.31;5016784;28;20049;-83
2023/12/07 04:16:25;;;;;;;121.72;52.30;;;;;;;1.23;100.00;100653.50;5017170;28;20116;-81
2023/12/07 04:18:52;;;;;;;119.65;53.97;;;;;;;1.25;100.00;100651.09;5018891;28;20041;-80
2023/12/07 04:21:20;;;;;;;126.47;54.80;;;;;;;1.27;100.00;100650.63;5038960;28;20061;-80
2023/12/07 04:23:46;;;;;;;117.53;55.72;;;;;;;1.22;100.00;100654.72;5037626;28;20127;-82
2023/12/07 04:26:14;;;;;;;122.60;56.17;;;;;;;1.22;100.00;100656.72;5031288;28;20467;-81
2023/12/07 04:28:41;;;;;;;122.40;54.20;;;;;;;1.22;100.00;100653.91;5018261;28;20022;-82
2023/12/07 04:31:07;;;;;;;116.65;54.25;;;;;;;1.19;100.00;100652.75;5018248;28;20030;-81
2023/12/07 04:33:47;;;;;;;120.72;54.45;;;;;;;1.20;100.00;100657.19;5018063;28;20080;-82
2023/12/07 04:36:27;;;;;;;124.28;56.00;;;;;;;1.22;100.00;100660.34;5016217;28;20117;-80
2023/12/07 04:38:55;;;;;;;122.78;54.42;;;;;;;1.27;100.00;100654.25;5016020;28;20403;-81
2023/12/07 04:41:21;;;;;;;125.65;55.45;;;;;;;1.27;100.00;100651.44;5016015;28;20391;-82
2023/12/07 04:43:49;;;;;;;130.35;55.28;;;;;;;1.25;100.00;100656.72;5015228;28;20026;-81
2023/12/07 04:46:17;;;;;;;126.30;54.92;;;;;;;1.26;100.00;100661.09;5016490;28;20029;-81
2023/12/07 04:48:44;;;;;;;123.30;57.63;;;;;;;1.24;100.00;100657.13;5015961;28;20068;-82
2023/12/07 04:51:11;;;;;;;124.93;54.45;;;;;;;1.21;100.00;100661.56;5015940;28;20116;-82
2023/12/07 04:53:38;;;;;;;127.82;55.40;;;;;;;1.22;100.00;100660.34;5015830;28;20053;-81
2023/12/07 04:56:04;;;;;;;115.97;52.72;;;;;;;1.19;100.00;100664.03;4997963;28;20088;-81
2023/12/07 04:58:32;;;;;;;115.80;52.13;;;;;;;1.16;100.00;100664.84;5015836;28;20038;-82
2023/12/07 05:01:00;;;;;;;114.35;52.70;;;;;;;1.12;100.00;100664.09;5015837;28;20026;-82
2023/12/07 05:03:27;;;;;;;125.82;55.85;;;;;;;1.11;100.00;100664.53;5016132;28;20048;-81
2023/12/07 05:05:53;;;;;;;125.63;56.10;;;;;;;1.13;100.00;100667.69;5015671;28;20030;-81
2023/12/07 05:08:20;;;;;;;125.57;54.10;;;;;;;1.18;100.00;100679.28;5015668;28;20032;-80
2023/12/07 05:10:47;;;;;;;133.52;61.72;;;;;;;1.23;100.00;100670.41;5013939;28;20152;-80
2023/12/07 05:13:13;;;;;;;135.13;59.53;;;;;;;1.28;100.00;100681.19;5014056;28;20215;-81
2023/12/07 05:15:39;;;;;;;131.27;56.40;;;;;;;1.26;100.00;100692.06;5030482;28;20482;-83
2023/12/07 05:18:20;;;;;;;121.38;54.80;;;;;;;1.23;100.00;100683.66;5014197;28;20102;-82
2023/12/07 05:20:45;;;;;;;125.13;58.20;;;;;;;1.19;100.00;100697.78;5014119;28;20033;-80
2023/12/07 05:23:11;;;;;;;125.93;56.40;;;;;;;1.20;100.00;100695.78;5015402;28;20387;-81
2023/12/07 05:25:39;;;;;;;129.38;59.03;;;;;;;1.21;100.00;100698.16;5015208;28;20453;-80
2023/12/07 05:28:04;;;;;;;127.25;57.67;;;;;;;1.20;100.00;100698.59;5017298;28;20056;-80
2023/12/07 05:30:31;;;;;;;134.30;58.92;;;;;;;1.20;100.00;100701.41;5018815;28;20021;-81
2023/12/07 05:32:57;;;;;;;136.55;61.53;;;;;;;1.23;100.00;100695.72;5016299;28;20038;-83
2023/12/07 05:35:26;;;;;;;130.40;56.80;;;;;;;1.26;100.00;100700.50;5015337;28;20068;-82
2023/12/07 05:37:51;;;;;;;135.45;60.92;;;;;;;1.31;100.00;100707.69;5015226;28;20026;-81
2023/12/07 05:40:19;;;;;;;127.03;59.83;;;;;;;1.35;100.00;100703.63;5015312;28;20379;-81
2023/12/07 05:42:49;;;;;;;139.10;60.88;;;;;;;1.37;100.00;100701.19;5015083;28;20026;-81
2023/12/07 05:45:14;;;;;;;136.48;62.58;;;;;;;1.32;100.00;100689.59;5013662;28;20060;-81
2023/12/07 05:47:42;;;;;;;132.23;60.30;;;;;;;1.39;100.00;100707.22;5014738;28;20033;-80
2023/12/07 05:50:08;;;;;;;138.02;60.38;;;;;;;1.43;100.00;100705.16;5013498;28;20029;-80
2023/12/07 05:52:35;;;;;;;131.45;59.25;;;;;;;1.47;100.00;100707.91;5014918;28;20029;-81
2023/12/07 05:55:01;;;;;;;138.82;62.88;;;;;;;1.51;100.00;100713.47;5014630;28;20115;-81
2023/12/07 05:57:26;;;;;;;137.43;61.95;;;;;;;1.56;100.00;100707.38;5014603;28;20462;-83
2023/12/07 05:59:54;;;;;;;128.65;59.92;;;;;;;1.58;100.00;100711.41;5012627;28;20026;-78
2023/12/07 06:02:21;;;;;;;140.35;61.25;;;;;;;1.61;100.00;100713.34;5029660;28;20084;-80
2023/12/07 06:04:48;;;;;;;137.40;64.68;;;;;;;1.58;100.00;100719.03;5012867;28;20402;-78
2023/12/07 06:07:14;;;;;;;132.18;59.97;;;;;;;1.56;100.00;100732.72;5014124;28;20068;-80
2023/12/07 06:09:41;;;;;;;142.50;65.50;;;;;;;1.58;100.00;100725.47;5015346;28;20466;-78
2023/12/07 06:12:07;;;;;;;144.63;63.00;;;;;;;1.63;100.00;100730.66;5014164;28;20160;-77
2023/12/07 06:14:34;;;;;;;148.95;64.50;;;;;;;1.66;100.00;100738.25;5012576;28;20438;-80
2023/12/07 06:17:02;;;;;;;146.35;64.97;;;;;;;1.67;100.00;100737.03;5006650;28;20022;-83
2023/12/07 06:19:32;;;;;;;159.70;64.68;;;;;;;1.66;100.00;100740.25;5008520;28;20050;-78
2023/12/07 06:21:59;;;;;;;154.13;63.22;;;;;;;1.68;100.00;100737.81;5009560;28;20043;-83
2023/12/07 06:24:25;;;;;;;153.30;66.80;;;;;;;1.78;100.00;100750.97;4995763;28;20037;-81
2023/12/07 06:26:52;;;;;;;145.52;64.35;;;;;;;1.82;100.00;100746.91;4994782;28;20022;-79
2023/12/07 06:29:18;;;;;;;161.73;67.82;;;;;;;1.86;100.00;100749.66;5010539;28;20120;-83
2023/12/07 06:31:44;;;;;;;166.25;67.43;;;;;;;1.90;100.00;100748.38;5009867;28;20514;-83
2023/12/07 06:34:09;;;;;;;152.32;68.65;;;;;;;1.87;100.00;100743.63;5010217;28;20038;-80
2023/12/07 06:36:35;;;;;;;162.00;67.38;;;;;;;1.95;100.00;100749.94;4994799;28;20050;-80
2023/12/07 06:39:03;;;;;;;151.38;66.80;;;;;;;1.98;100.00;100749.09;4994375;28;20027;-80
2023/12/07 06:41:28;;;;;;;164.35;68.95;;;;;;;1.94;100.00;100756.81;4993491;28;20054;-81
2023/12/07 06:43:54;;;;;;;162.23;68.18;;;;;;;1.88;100.00;100758.50;4993709;28;20369;-79
2023/12/07 06:46:19;;;;;;;169.48;69.80;;;;;;;1.87;100.00;100754.88;5007968;28;20384;-81
2023/12/07 06:48:45;;;;;;;152.80;67.13;;;;;;;1.90;100.00;100767.31;5009579;28;20080;-81
2023/12/07 06:51:10;;;;;;;172.18;70.80;;;;;;;1.86;100.00;100758.09;4994356;28;20076;-79
2023/12/07 06:53:36;;;;;;;172.68;70.07;;;;;;;1.86;100.00;100764.56;4994325;28;20061;-82
2023/12/07 06:56:01;;;;;;;157.25;66.22;;;;;;;1.81;100.00;100767.03;4994435;28;20030;-83
2023/12/07 06:58:27;;;;;;;163.57;73.43;;;;;;;1.82;100.00;100772.25;4993382;28;20041;-82
2023/12/07 07:00:52;;;;;;;160.18;68.90;;;;;;;1.80;100.00;100771.88;4996267;28;20421;-80
2023/12/07 07:03:17;;;;;;;166.50;72.30;;;;;;;1.72;100.00;100772.38;4995907;28;20038;-82
2023/12/07 07:05:43;;;;;;;168.02;74.40;;;;;;;1.67;100.00;100773.66;4995429;28;20041;-81
2023/12/07 07:08:08;;;;;;;182.70;73.53;;;;;;;1.60;100.00;100765.25;4993646;28;20284;-81
2023/12/07 07:10:34;;;;;;;181.05;76.93;;;;;;;1.60;100.00;100776.53;5008939;28;20078;-81
2023/12/07 07:13:04;;;;;;;189.05;74.88;;;;;;;1.65;100.00;100773.25;4991954;28;20399;-81
2023/12/07 07:15:30;;;;;;;185.45;74.97;;;;;;;1.70;100.00;100783.28;4992300;28;20077;-81
2023/12/07 07:17:56;;;;;;;207.75;87.47;;;;;;;1.72;100.00;100772.38;5007603;28;20030;-83
2023/12/07 07:20:22;;;;;;;211.45;84.38;;;;;;;1.77;100.00;100771.91;4991980;28;20022;-81
2023/12/07 07:22:47;;;;;;;208.70;87.22;;;;;;;1.83;100.00;100781.50;4992194;28;20069;-80
2023/12/07 07:25:15;;;;;;;177.05;74.43;;;;;;;1.90;100.00;100773.75;5007273;28;20061;-80
2023/12/07 07:27:40;;;;;;;173.35;71.75;;;;;;;1.92;100.00;100771.31;4992910;28;20089;-82
2023/12/07 07:30:06;;;;;;;177.85;69.40;;;;;;;1.97;100.00;100778.50;4993942;28;20034;-81
2023/12/07 07:32:31;;;;;;;168.57;68.03;;;;;;;2.04;100.00;100781.25;4994220;28;20369;-81
2023/12/07 07:34:57;;;;;;;165.07;66.60;;;;;;;2.05;100.00;100773.56;4994072;28;20030;-81
2023/12/07 07:37:22;;;;;;;161.40;64.82;;;;;;;2.13;100.00;100787.16;4993974;28;20088;-82
2023/12/07 07:39:48;;;;;;;174.15;63.90;;;;;;;2.16;100.00;100783.47;4994158;28;20060;-81
2023/12/07 07:42:13;;;;;;;158.93;63.55;;;;;;;2.17;100.00;100787.09;4993943;28;20076;-82
2023/12/07 07:44:38;;;;;;;154.00;60.58;;;;;;;2.22;100.00;100786.63;4994004;28;20047;-80
2023/12/07 07:47:04;;;;;;;165.95;63.85;;;;;;;2.28;100.00;100799.84;4993866;28;20069;-81
2023/12/07 07:49:29;;;;;;;164.73;64.97;;;;;;;2.28;100.00;100797.00;4993782;28;20049;-81
2023/12/07 07:51:55;;;;;;;153.15;58.95;;;;;;;2.32;100.00;100800.56;4995438;28;20084;-81
2023/12/07 07:54:20;;;;;;;155.65;59.83;;;;;;;2.33;100.00;100805.00;4996746;28;20033;-81
2023/12/07 07:56:46;;;;;;;156.48;60.30;;;;;;;2.37;100.00;100806.97;4994454;28;20023;-81
2023/12/07 07:59:11;;;;;;;160.05;61.00;;;;;;;2.37;100.00;100809.78;4994022;28;20038;-81
2023/12/07 08:01:37;;;;;;;163.48;63.75;;;;;;;2.41;100.00;100808.50;4993709;28;20030;-83
2023/12/07 08:04:02;;;;;;;145.18;58.70;;;;;;;2.44;100.00;100810.47;4994116;28;20022;-82
2023/12/07 08:06:27;;;;;;;154.75;61.22;;;;;;;2.44;100.00;100809.69;4993961;28;20109;-81
2023/12/07 08:08:53;;;;;;;158.85;59.42;;;;;;;2.46;100.00;100813.66;4993529;28;20050;-82
2023/12/07 08:11:18;;;;;;;159.38;59.53;;;;;;;2.48;100.00;100813.25;4993316;28;20065;-81
2023/12/07 08:13:44;;;;;;;160.07;57.88;;;;;;;2.50;100.00;100813.59;4993220;28;20026;-81
2023/12/07 08:16:09;;;;;;;147.80;59.42;;;;;;;2.49;100.00;100823.31;4993335;28;20030;-82
2023/12/07 08:18:35;;;;;;;161.65;58.65;;;;;;;2.47;100.00;100825.75;4993294;28;20034;-82
2023/12/07 08:21:01;;;;;;;165.95;60.85;;;;;;;2.45;100.00;100822.53;4992179;28;20126;-82
2023/12/07 08:23:26;;;;;;;173.43;63.30;;;;;;;2.47;100.00;100828.56;4995096;28;20033;-81
2023/12/07 08:25:52;;;;;;;165.77;60.08;;;;;;;2.46;100.00;100826.97;4997166;28;20380;-81
2023/12/07 08:28:18;;;;;;;159.70;60.65;;;;;;;2.42;100.00;100824.22;4996938;28;20026;-81
2023/12/07 08:30:43;;;;;;;182.07;63.20;;;;;;;2.43;100.00;100825.81;5000287;28;20121;-81
2023/12/07 08:33:09;;;;;;;180.68;63.33;;;;;;;2.47;100.00;100818.09;5004927;28;20080;-81
2023/12/07 08:35:34;;;;;;;176.00;62.75;;;;;;;2.50;100.00;100822.06;5025194;28;20137;-81
2023/12/07 08:38:00;;;;;;;178.43;64.78;;;;;;;2.53;100.00;100821.25;5007905;28;20456;-82
2023/12/07 08:40:25;;;;;;;189.88;65.13;;;;;;;2.59;100.00;100830.81;5004262;28;20030;-84
2023/12/07 08:42:50;;;;;;;165.50;62.15;;;;;;;2.56;100.00;100821.19;5003954;28;20026;-81
2023/12/07 08:45:16;;;;;;;193.38;63.72;;;;;;;2.62;100.00;100832.78;5018700;28;20445;-82
2023/12/07 08:47:42;;;;;;;200.73;65.32;;;;;;;2.64;100.00;100824.69;4997821;28;20026;-83
2023/12/07 08:50:07;;;;;;;194.82;64.68;;;;;;;2.70;100.00;100823.78;4997270;28;20471;-82
2023/12/07 08:52:33;;;;;;;195.02;64.55;;;;;;;2.73;100.00;100824.97;4997268;28;20030;-83
2023/12/07 08:54:59;;;;;;;198.90;65.55;;;;;;;2.74;100.00;100818.88;4996988;28;20037;-82
2023/12/07 08:57:24;;;;;;;201.32;65.90;;;;;;;2.87;100.00;100832.41;4996807;28;20030;-81
2023/12/07 08:59:50;;;;;;;178.70;63.50;;;;;;;2.92;100.00;100824.25;4996960;28;20030;-83
2023/12/07 09:02:15;;;;;;;189.07;63.13;;;;;;;2.97;100.00;100820.16;4996854;28;20057;-81
2023/12/07 09:04:41;;;;;;;194.95;64.72;;;;;;;3.06;100.00;100829.66;4996786;28;20032;-82
2023/12/07 09:07:06;;;;;;;184.05;64.68;;;;;;;3.11;100.00;100819.91;4996487;28;20412;-81
2023/12/07 09:09:32;;;;;;;160.85;58.33;;;;;;;3.19;100.00;100819.34;4996445;28;20061;-83
2023/12/07 09:11:58;;;;;;;177.60;62.45;;;;;;;3.30;100.00;100824.03;4996483;28;20062;-83
2023/12/07 09:14:23;;;;;;;171.52;60.60;;;;;;;3.34;100.00;100827.56;4995389;28;20036;-83
2023/12/07 09:16:48;;;;;;;181.43;62.05;;;;;;;3.36;100.00;100831.56;4997267;28;20030;-83
2023/12/07 09:19:14;;;;;;;183.88;60.22;;;;;;;3.40;100.00;100831.50;4996773;28;20069;-83
2023/12/07 09:21:42;;;;;;;167.25;62.33;;;;;;;3.40;100.00;100829.47;4995021;28;20061;-81
2023/12/07 09:24:08;;;;;;;163.00;59.10;;;;;;;3.45;100.00;100828.19;4996038;28;20475;-82
2023/12/07 09:26:33;;;;;;;149.45;57.83;;;;;;;3.48;100.00;100835.78;5011549;28;20113;-81
2023/12/07 09:28:59;;;;;;;175.05;60.75;;;;;;;3.44;100.00;100826.59;4996362;28;20053;-82
2023/12/07 09:31:24;;;;;;;168.45;64.97;;;;;;;3.42;100.00;100823.41;5012188;28;20053;-82
2023/12/07 09:33:50;;;;;;;172.35;59.03;;;;;;;3.34;100.00;100825.56;5011130;28;20073;-81
2023/12/07 09:36:18;;;;;;;168.05;58.85;;;;;;;3.36;100.00;100836.41;4994963;28;20467;-81
2023/12/07 09:38:44;;;;;;;161.05;62.25;;;;;;;3.32;100.00;100830.84;4994273;28;20038;-82
2023/12/07 09:41:10;;;;;;;174.57;61.60;;;;;;;3.32;100.00;100830.84;4995471;28;20156;-82
2023/12/07 09:43:36;;;;;;;171.85;58.58;;;;;;;3.30;100.00;100827.63;4993999;28;20070;-83
2023/12/07 09:46:01;;;;;;;174.32;63.75;;;;;;;3.30;100.00;100824.81;4994163;28;20033;-82
2023/12/07 09:48:28;;;;;;;186.25;61.00;;;;;;;3.29;100.00;100823.22;4995529;28;20026;-81
2023/12/07 09:50:55;;;;;;;167.30;60.03;;;;;;;3.30;100.00;100826.84;4995396;28;20022;-81
2023/12/07 09:53:21;;;;;;;176.82;61.72;;;;;;;3.33;100.00;100826.00;4994284;28;20033;-83
2023/12/07 09:55:47;;;;;;;171.95;61.22;;;;;;;3.35;100.00;100820.69;5010641;28;20026;-83
2023/12/07 09:58:12;;;;;;;162.35;61.33;;;;;;;3.36;100.00;100816.66;4995236;28;20038;-81
2023/12/07 10:00:37;;;;;;;161.40;60.88;;;;;;;3.37;100.00;100810.59;4995593;28;20058;-83
2023/12/07 10:03:04;;;;;;;184.15;60.70;;;;;;;3.42;100.00;100817.75;4995796;28;20030;-83
2023/12/07 10:05:29;;;;;;;165.23;59.85;;;;;;;3.43;100.00;100822.97;4997878;28;20030;-82
2023/12/07 10:07:55;;;;;;;176.32;61.33;;;;;;;3.45;100.00;100823.34;5000108;28;20104;-83
2023/12/07 10:10:20;;;;;;;158.18;59.10;;;;;;;3.45;100.00;100823.34;4997775;28;20026;-82
2023/12/07 10:12:57;;;;;;;158.98;58.30;;;;;;;3.45;100.00;100822.53;4998525;28;20038;-82
2023/12/07 10:15:23;;;;;;;152.73;56.47;;;;;;;3.43;100.00;100822.97;5000602;28;20022;-82
2023/12/07 10:17:54;;;;;;;158.45;58.38;;;;;;;3.46;100.00;100822.13;4999645;28;20037;-81
2023/12/07 10:20:24;;;;;;;154.68;55.65;;;;;;;3.51;100.00;100823.66;5012414;28;20034;-83
2023/12/07 10:23:11;;;;;;;155.50;56.30;;;;;;;3.53;100.00;100824.78;4996579;28;20041;-82
2023/12/07 10:25:43;;;;;;;147.05;54.55;;;;;;;3.56;100.00;100826.78;4995486;28;20023;-82
2023/12/07 10:28:11;;;;;;;151.25;56.13;;;;;;;3.61;100.00;100823.44;4995161;28;20110;-82
2023/12/07 10:30:37;;;;;;;153.07;56.28;;;;;;;3.63;100.00;100829.44;4995270;28;20502;-81
2023/12/07 10:33:09;;;;;;;147.82;56.55;;;;;;;3.66;100.00;100824.97;4993928;28;20109;-82
2023/12/07 10:35:41;;;;;;;;;;;;;;;3.62;100.00;100824.25;5010283;28;20049;-82
2023/12/07 10:38:07;;;;;;;151.90;53.72;;;;;;;3.70;100.00;100817.22;4993664;28;20351;-82
2023/12/07 10:40:33;;;;;;;140.00;55.20;;;;;;;3.76;100.00;100829.63;4994783;28;20029;-82
2023/12/07 10:42:58;;;;;;;151.25;55.00;;;;;;;3.76;100.00;100828.81;4993381;28;20442;-82
2023/12/07 10:45:30;;;;;;;143.43;52.67;;;;;;;3.69;100.00;100820.47;5009412;28;20030;-82
2023/12/07 10:48:03;;;;;;;136.20;53.05;;;;;;;3.61;100.00;100817.78;4994625;28;20034;-82
2023/12/07 10:50:31;;;;;;;145.77;50.95;;;;;;;3.62;100.00;100827.06;4994993;28;20496;-82
2023/12/07 10:52:59;;;;;;;150.57;49.55;;;;;;;3.62;100.00;100827.06;4994304;28;20022;-82
2023/12/07 10:55:29;;;;;;;142.63;52.53;;;;;;;3.64;100.00;100822.56;4993278;28;20183;-82
2023/12/07 10:57:55;;;;;;;142.75;54.05;;;;;;;3.64;100.00;100822.56;4994355;28;20077;-81
2023/12/07 11:00:27;;;;;;;160.30;57.42;;;;;;;3.57;100.00;100819.09;4993003;28;20085;-81
2023/12/07 11:02:52;;;;;;;;;;;;;;;3.48;100.00;100813.19;4994741;28;20103;-81